createdAt,value
2019-01-26T00:01:18.496Z,2.57
2019-01-26T00:03:47.112Z,2.58
2019-01-26T00:06:15.640Z,2.59
2019-01-26T00:08:47.401Z,2.58
2019-01-26T00:11:15.884Z,2.61
2019-01-26T00:13:44.454Z,2.63
2019-01-26T00:16:12.955Z,2.68
2019-01-26T00:18:41.429Z,2.67
2019-01-26T00:21:09.881Z,2.69
2019-01-26T00:23:38.502Z,2.70
2019-01-26T00:26:06.943Z,2.71
2019-01-26T00:28:35.450Z,2.75
2019-01-26T00:31:04.033Z,2.78
2019-01-26T00:33:32.488Z,2.78
2019-01-26T00:36:01.016Z,2.80
2019-01-26T00:38:29.456Z,2.82
2019-01-26T00:40:57.869Z,2.85
2019-01-26T00:43:26.332Z,2.87
2019-01-26T00:45:54.759Z,2.91
2019-01-26T00:48:23.336Z,2.92
2019-01-26T00:50:51.750Z,2.96
2019-01-26T00:53:20.260Z,2.97
2019-01-26T00:55:48.769Z,2.89
2019-01-26T00:58:17.261Z,2.94
2019-01-26T01:00:45.696Z,2.95
2019-01-26T01:03:14.280Z,2.97
2019-01-26T01:05:42.716Z,3.00
2019-01-26T01:08:11.207Z,3.01
2019-01-26T01:10:39.767Z,3.04
2019-01-26T01:13:08.184Z,3.07
2019-01-26T01:15:36.617Z,3.09
2019-01-26T01:18:05.099Z,3.12
2019-01-26T01:20:33.543Z,3.14
2019-01-26T01:23:01.982Z,3.16
2019-01-26T01:25:30.420Z,3.22
2019-01-26T01:27:58.832Z,3.25
2019-01-26T01:30:27.345Z,3.28
2019-01-26T01:32:55.782Z,3.33
2019-01-26T01:35:24.291Z,3.36
2019-01-26T01:37:52.782Z,3.38
2019-01-26T01:40:21.462Z,3.42
2019-01-26T01:42:49.895Z,3.45
2019-01-26T01:45:23.310Z,3.48
2019-01-26T01:47:51.729Z,3.52
2019-01-26T01:50:20.312Z,3.55
2019-01-26T01:52:48.819Z,3.57
2019-01-26T01:55:17.433Z,3.60
2019-01-26T01:57:46.063Z,3.61
2019-01-26T02:00:17.313Z,3.64
2019-01-26T02:02:45.770Z,3.67
2019-01-26T02:05:14.297Z,3.71
2019-01-26T02:07:42.771Z,3.74
2019-01-26T02:10:14.573Z,3.78
2019-01-26T02:12:42.990Z,3.78
2019-01-26T02:15:12.574Z,3.80
2019-01-26T02:17:40.982Z,3.82
2019-01-26T02:20:15.556Z,3.84
2019-01-26T02:22:44.041Z,3.85
2019-01-26T02:25:13.120Z,3.85
2019-01-26T02:27:41.619Z,3.86
2019-01-26T02:30:13.316Z,3.90
2019-01-26T02:32:41.730Z,3.92
2019-01-26T02:35:10.299Z,3.93
2019-01-26T02:37:38.727Z,3.93
2019-01-26T02:40:10.202Z,3.93
2019-01-26T02:42:38.901Z,4.04
2019-01-26T02:45:09.872Z,4.08
2019-01-26T02:47:38.454Z,4.11
2019-01-26T02:50:10.120Z,4.16
2019-01-26T02:52:38.599Z,4.17
2019-01-26T02:55:07.378Z,4.19
2019-01-26T02:57:35.822Z,4.18
2019-01-26T03:00:07.305Z,4.20
2019-01-26T03:02:35.746Z,4.22
2019-01-26T03:05:06.915Z,4.23
2019-01-26T03:07:35.341Z,4.27
2019-01-26T03:10:04.934Z,4.28
2019-01-26T03:12:33.374Z,4.31
2019-01-26T03:15:01.787Z,4.34
2019-01-26T03:17:30.233Z,4.37
2019-01-26T03:19:58.660Z,4.37
2019-01-26T03:22:27.155Z,4.39
2019-01-26T03:24:55.565Z,4.43
2019-01-26T03:27:24.003Z,4.45
2019-01-26T03:29:52.425Z,4.48
2019-01-26T03:32:20.900Z,4.53
2019-01-26T03:34:49.380Z,4.52
2019-01-26T03:37:17.846Z,4.59
2019-01-26T03:39:46.329Z,4.63
2019-01-26T03:42:14.751Z,4.65
2019-01-26T03:44:43.173Z,4.65
2019-01-26T03:47:13.741Z,4.70
2019-01-26T03:49:41.747Z,4.71
2019-01-26T03:52:10.220Z,4.72
2019-01-26T03:54:38.628Z,4.73
2019-01-26T03:57:07.148Z,4.76
2019-01-26T03:59:35.619Z,4.78
2019-01-26T04:02:04.231Z,4.82
2019-01-26T04:04:32.716Z,4.82
2019-01-26T04:07:01.166Z,4.82
2019-01-26T04:09:29.716Z,4.85
2019-01-26T04:11:58.097Z,4.90
2019-01-26T04:14:26.510Z,4.96
2019-01-26T04:16:55.010Z,4.96
2019-01-26T04:19:23.429Z,4.98
2019-01-26T04:21:51.859Z,5.01
2019-01-26T04:24:20.342Z,5.04
2019-01-26T04:26:48.799Z,5.04
2019-01-26T04:29:17.218Z,5.08
2019-01-26T04:31:45.664Z,5.08
2019-01-26T04:34:14.079Z,5.08
2019-01-26T04:36:42.562Z,5.14
2019-01-26T04:39:10.945Z,5.12
2019-01-26T04:41:39.420Z,5.13
2019-01-26T04:44:07.864Z,5.16
2019-01-26T04:46:36.289Z,5.16
2019-01-26T04:49:04.864Z,5.14
2019-01-26T04:51:33.279Z,5.16
2019-01-26T04:54:01.700Z,5.16
2019-01-26T04:56:30.145Z,5.17
2019-01-26T04:58:58.592Z,5.18
2019-01-26T05:01:27.014Z,5.20
2019-01-26T05:03:55.450Z,5.20
2019-01-26T05:06:23.873Z,5.19
2019-01-26T05:08:52.301Z,5.19
2019-01-26T05:11:20.774Z,5.23
2019-01-26T05:13:49.174Z,5.23
2019-01-26T05:16:17.595Z,5.19
2019-01-26T05:18:46.038Z,5.19
2019-01-26T05:21:14.444Z,5.18
2019-01-26T05:23:42.906Z,5.10
2019-01-26T05:26:11.316Z,5.10
2019-01-26T05:28:39.755Z,5.10
2019-01-26T05:31:08.246Z,5.10
2019-01-26T05:33:36.699Z,5.09
2019-01-26T05:36:05.277Z,5.09
2019-01-26T05:38:33.736Z,5.07
2019-01-26T05:41:02.158Z,5.06
2019-01-26T05:43:30.618Z,5.06
2019-01-26T05:45:59.109Z,5.09
2019-01-26T05:48:27.583Z,5.09
2019-01-26T05:50:56.102Z,5.08
2019-01-26T05:53:24.543Z,5.11
2019-01-26T05:55:52.970Z,5.14
2019-01-26T05:58:21.420Z,5.15
2019-01-26T06:00:49.845Z,5.16
2019-01-26T06:03:18.307Z,5.17
2019-01-26T06:05:46.738Z,5.18
2019-01-26T06:08:15.186Z,5.21
2019-01-26T06:10:43.597Z,5.28
2019-01-26T06:13:12.045Z,5.29
2019-01-26T06:15:40.474Z,5.29
2019-01-26T06:18:08.985Z,5.29
2019-01-26T06:20:37.411Z,5.30
2019-01-26T06:23:05.830Z,5.29
2019-01-26T06:25:34.263Z,5.26
2019-01-26T06:28:02.714Z,5.25
2019-01-26T06:30:31.166Z,5.23
2019-01-26T06:32:59.681Z,5.18
2019-01-26T06:35:28.125Z,5.15
2019-01-26T06:37:56.549Z,5.09
2019-01-26T06:40:25.061Z,5.09
2019-01-26T06:42:53.646Z,5.07
2019-01-26T06:45:22.380Z,5.00
2019-01-26T06:47:50.876Z,5.00
2019-01-26T06:50:23.750Z,4.99
2019-01-26T06:52:52.469Z,4.99
2019-01-26T06:55:21.232Z,4.99
2019-01-26T06:57:49.713Z,5.00
2019-01-26T07:00:21.065Z,5.01
2019-01-26T07:02:49.554Z,5.01
2019-01-26T07:05:20.086Z,5.03
2019-01-26T07:07:48.543Z,5.05
2019-01-26T07:10:17.023Z,5.05
2019-01-26T07:12:45.452Z,5.03
2019-01-26T07:15:15.516Z,5.03
2019-01-26T07:17:44.000Z,5.07
2019-01-26T07:20:15.224Z,5.07
2019-01-26T07:22:43.645Z,5.07
2019-01-26T07:25:12.372Z,5.09
2019-01-26T07:27:40.854Z,5.07
2019-01-26T07:30:21.353Z,5.12
2019-01-26T07:32:49.838Z,5.13
2019-01-26T07:35:18.272Z,5.14
2019-01-26T07:37:46.691Z,5.16
2019-01-26T07:40:20.939Z,5.18
2019-01-26T07:42:49.616Z,5.14
2019-01-26T07:45:18.488Z,5.14
2019-01-26T07:47:46.979Z,5.22
2019-01-26T07:50:21.527Z,5.22
2019-01-26T07:52:50.115Z,5.24
2019-01-26T07:55:18.973Z,5.32
2019-01-26T07:57:47.403Z,5.32
2019-01-26T08:00:21.589Z,5.39
2019-01-26T08:02:50.019Z,5.39
2019-01-26T08:05:19.103Z,5.45
2019-01-26T08:07:47.685Z,5.60
2019-01-26T08:10:21.755Z,5.69
2019-01-26T08:12:50.628Z,5.83
2019-01-26T08:15:24.644Z,5.99
2019-01-26T08:17:53.143Z,6.12
2019-01-26T08:20:22.382Z,6.22
2019-01-26T08:22:51.042Z,6.35
2019-01-26T08:25:19.485Z,6.40
2019-01-26T08:27:48.778Z,6.55
2019-01-26T08:30:24.387Z,6.64
2019-01-26T08:32:53.446Z,6.76
2019-01-26T08:35:22.147Z,6.83
2019-01-26T08:37:50.729Z,6.92
2019-01-26T08:40:21.298Z,6.98
2019-01-26T08:42:50.658Z,7.06
2019-01-26T08:45:19.330Z,7.11
2019-01-26T08:47:48.401Z,7.19
2019-01-26T08:50:19.511Z,7.13
2019-01-26T08:52:48.004Z,7.08
2019-01-26T08:55:18.272Z,7.05
2019-01-26T08:57:47.038Z,7.05
2019-01-26T09:00:18.674Z,7.04
2019-01-26T09:02:55.742Z,7.00
2019-01-26T09:05:26.136Z,7.04
2019-01-26T09:07:54.588Z,7.05
2019-01-26T09:10:23.097Z,7.07
2019-01-26T09:12:51.531Z,7.07
2019-01-26T09:15:20.329Z,7.09
2019-01-26T09:17:48.832Z,7.10
2019-01-26T09:20:18.411Z,7.09
2019-01-26T09:22:46.846Z,7.10
2019-01-26T09:25:15.406Z,7.12
2019-01-26T09:27:44.191Z,7.12
2019-01-26T09:30:15.675Z,7.08
2019-01-26T09:32:44.176Z,7.08
2019-01-26T09:35:12.912Z,7.11
2019-01-26T09:37:41.347Z,7.12
2019-01-26T09:40:18.529Z,7.14
2019-01-26T09:42:46.954Z,7.15
2019-01-26T09:45:17.394Z,7.15
2019-01-26T09:47:46.162Z,7.13
2019-01-26T09:50:15.555Z,7.13
2019-01-26T09:52:43.967Z,7.11
2019-01-26T09:55:14.832Z,7.09
2019-01-26T09:57:43.289Z,7.09
2019-01-26T10:00:26.164Z,7.11
2019-01-26T10:02:54.680Z,7.13
2019-01-26T10:05:23.170Z,7.10
2019-01-26T10:07:51.811Z,7.14
2019-01-26T10:10:21.362Z,7.13
2019-01-26T10:12:50.092Z,7.16
2019-01-26T10:15:23.546Z,7.16
2019-01-26T10:17:52.032Z,7.16
2019-01-26T10:20:29.488Z,7.16
2019-01-26T10:22:57.909Z,7.13
2019-01-26T10:25:26.548Z,7.15
2019-01-26T10:27:54.985Z,7.15
2019-01-26T10:30:36.836Z,7.14
2019-01-26T10:33:05.403Z,7.17
2019-01-26T10:35:51.455Z,7.20
2019-01-26T10:38:20.118Z,7.22
2019-01-26T10:40:53.010Z,7.22
2019-01-26T10:43:23.170Z,7.20
2019-01-26T10:45:51.592Z,7.22
2019-01-26T10:48:20.092Z,7.21
2019-01-26T10:50:48.523Z,7.26
2019-01-26T10:53:16.964Z,7.25
2019-01-26T10:55:45.461Z,7.27
2019-01-26T10:58:13.900Z,7.27
2019-01-26T11:00:42.348Z,7.27
2019-01-26T11:03:10.861Z,7.30
2019-01-26T11:05:39.362Z,7.30
2019-01-26T11:08:07.778Z,7.32
2019-01-26T11:10:36.205Z,7.28
2019-01-26T11:13:04.705Z,7.31
2019-01-26T11:15:33.225Z,7.29
2019-01-26T11:18:01.805Z,7.31
2019-01-26T11:20:30.549Z,7.32
2019-01-26T11:22:59.000Z,7.33
2019-01-26T11:25:27.415Z,7.32
2019-01-26T11:27:55.869Z,7.28
2019-01-26T11:30:26.090Z,7.28
2019-01-26T11:32:54.538Z,7.30
2019-01-26T11:35:24.905Z,7.31
2019-01-26T11:37:53.479Z,7.34
2019-01-26T11:40:23.635Z,7.34
2019-01-26T11:42:52.479Z,7.34
2019-01-26T11:45:39.027Z,7.35
2019-01-26T11:48:21.282Z,7.36
2019-01-26T11:50:51.463Z,7.36
2019-01-26T11:53:19.919Z,7.38
2019-01-26T11:55:49.985Z,7.38
2019-01-26T11:58:18.475Z,7.28
2019-01-26T12:00:59.539Z,7.33
2019-01-26T12:03:31.825Z,7.35
2019-01-26T12:06:04.314Z,7.35
2019-01-26T12:08:32.830Z,7.36
2019-01-26T12:11:01.259Z,7.35
2019-01-26T12:13:29.701Z,7.38
2019-01-26T12:15:58.134Z,7.36
2019-01-26T12:18:26.678Z,7.37
2019-01-26T12:20:55.126Z,7.37
2019-01-26T12:23:23.687Z,7.36
2019-01-26T12:25:52.127Z,7.38
2019-01-26T12:28:20.555Z,7.40
2019-01-26T12:30:49.080Z,7.42
2019-01-26T12:33:17.526Z,7.43
2019-01-26T12:35:46.000Z,7.45
2019-01-26T12:38:14.556Z,7.47
2019-01-26T12:40:43.044Z,7.47
2019-01-26T12:43:11.597Z,7.46
2019-01-26T12:45:40.108Z,7.49
2019-01-26T12:48:08.685Z,7.47
2019-01-26T12:50:37.143Z,7.50
2019-01-26T12:53:06.023Z,7.54
2019-01-26T12:55:34.650Z,7.55
2019-01-26T12:58:03.079Z,7.53
2019-01-26T13:00:31.580Z,7.55
2019-01-26T13:03:00.032Z,7.55
2019-01-26T13:05:28.591Z,7.56
2019-01-26T13:07:57.025Z,7.57
2019-01-26T13:10:28.505Z,7.56
2019-01-26T13:12:57.080Z,7.54
2019-01-26T13:15:25.590Z,7.56
2019-01-26T13:17:54.161Z,7.53
2019-01-26T13:20:22.792Z,7.52
2019-01-26T13:22:51.442Z,7.51
2019-01-26T13:25:20.220Z,7.48
2019-01-26T13:27:48.745Z,7.52
2019-01-26T13:30:22.671Z,7.51
2019-01-26T13:32:51.224Z,7.51
2019-01-26T13:35:19.882Z,7.53
2019-01-26T13:37:48.566Z,7.51
2019-01-26T13:40:19.984Z,7.53
2019-01-26T13:42:48.488Z,7.54
2019-01-26T13:45:17.446Z,7.53
2019-01-26T13:47:45.890Z,7.50
2019-01-26T13:50:14.666Z,7.51
2019-01-26T13:52:43.208Z,7.51
2019-01-26T13:55:17.423Z,7.49
2019-01-26T13:57:45.866Z,7.46
2019-01-26T14:00:23.051Z,7.45
2019-01-26T14:02:51.553Z,7.40
2019-01-26T14:05:20.146Z,7.42
2019-01-26T14:07:48.647Z,7.43
2019-01-26T14:10:20.421Z,7.38
2019-01-26T14:12:49.314Z,7.36
2019-01-26T14:15:19.591Z,7.38
2019-01-26T14:17:48.170Z,7.37
2019-01-26T14:20:19.476Z,7.36
2019-01-26T14:22:47.978Z,7.31
2019-01-26T14:25:17.769Z,7.26
2019-01-26T14:27:46.329Z,7.16
2019-01-26T14:30:21.129Z,7.15
2019-01-26T14:32:52.672Z,7.18
2019-01-26T14:35:20.138Z,7.14
2019-01-26T14:37:48.648Z,7.11
2019-01-26T14:40:17.896Z,7.10
2019-01-26T14:42:46.342Z,7.08
2019-01-26T14:45:16.796Z,7.08
2019-01-26T14:47:45.397Z,7.08
2019-01-26T14:50:16.160Z,7.07
2019-01-26T14:52:44.947Z,7.08
2019-01-26T14:55:16.311Z,7.10
2019-01-26T14:57:44.773Z,7.06
2019-01-26T15:00:31.379Z,7.05
2019-01-26T15:02:59.896Z,7.01
2019-01-26T15:05:28.798Z,7.05
2019-01-26T15:07:59.169Z,6.99
2019-01-26T15:10:27.849Z,7.02
2019-01-26T15:12:56.315Z,7.01
2019-01-26T15:15:24.882Z,6.98
2019-01-26T15:17:53.333Z,6.97
2019-01-26T15:20:30.749Z,6.91
2019-01-26T15:22:59.314Z,6.92
2019-01-26T15:25:27.895Z,6.94
2019-01-26T15:27:56.394Z,6.96
2019-01-26T15:30:33.969Z,6.93
2019-01-26T15:33:02.553Z,6.94
2019-01-26T15:35:31.053Z,6.95
2019-01-26T15:37:59.496Z,6.91
2019-01-26T15:40:27.928Z,6.91
2019-01-26T15:42:56.390Z,6.92
2019-01-26T15:45:27.856Z,6.92
2019-01-26T15:47:57.110Z,6.91
2019-01-26T15:50:25.536Z,6.87
2019-01-26T15:52:53.950Z,6.87
2019-01-26T15:55:24.838Z,6.85
2019-01-26T15:57:53.609Z,6.86
2019-01-26T16:00:41.878Z,6.86
2019-01-26T16:03:10.438Z,6.86
2019-01-26T16:05:38.941Z,6.86
2019-01-26T16:08:08.008Z,6.81
2019-01-26T16:10:37.029Z,6.84
2019-01-26T16:13:05.986Z,6.83
2019-01-26T16:15:36.863Z,6.85
2019-01-26T16:18:07.854Z,6.87
2019-01-26T16:20:36.274Z,6.87
2019-01-26T16:23:09.388Z,6.85
2019-01-26T16:25:35.197Z,6.85
2019-01-26T16:28:03.699Z,6.82
2019-01-26T16:30:32.973Z,6.86
2019-01-26T16:33:01.413Z,6.85
2019-01-26T16:35:29.849Z,6.84
2019-01-26T16:37:58.452Z,6.88
2019-01-26T16:40:29.939Z,6.88
2019-01-26T16:42:58.435Z,6.90
2019-01-26T16:45:34.809Z,6.92
2019-01-26T16:48:03.671Z,6.92
2019-01-26T16:50:32.478Z,6.95
2019-01-26T16:53:00.992Z,7.04
2019-01-26T16:55:29.516Z,7.10
2019-01-26T16:57:57.946Z,7.13
2019-01-26T17:00:35.351Z,7.13
2019-01-26T17:03:03.963Z,7.12
2019-01-26T17:05:32.637Z,7.09
2019-01-26T17:08:01.332Z,7.12
2019-01-26T17:10:34.181Z,7.13
2019-01-26T17:13:00.110Z,7.13
2019-01-26T17:15:28.585Z,7.13
2019-01-26T17:17:57.190Z,7.23
2019-01-26T17:20:35.021Z,7.23
2019-01-26T17:23:01.531Z,7.19
2019-01-26T17:25:29.967Z,7.13
2019-01-26T17:27:58.452Z,7.08
2019-01-26T17:30:32.332Z,7.10
2019-01-26T17:33:06.984Z,7.11
2019-01-26T17:35:31.078Z,7.11
2019-01-26T17:37:59.500Z,7.11
2019-01-26T17:40:28.029Z,7.14
2019-01-26T17:42:56.539Z,7.14
2019-01-26T17:45:25.445Z,7.13
2019-01-26T17:47:54.416Z,7.13
2019-01-26T17:50:25.352Z,7.12
2019-01-26T17:52:53.985Z,7.12
2019-01-26T17:55:22.603Z,7.05
2019-01-26T17:57:51.253Z,7.06
2019-01-26T18:03:23.547Z,7.07
2019-01-26T18:05:52.016Z,7.07
2019-01-26T18:08:20.479Z,7.04
2019-01-26T18:10:49.059Z,7.07
2019-01-26T18:13:17.583Z,7.05
2019-01-26T18:15:46.010Z,7.05
2019-01-26T18:18:14.520Z,7.04
2019-01-26T18:20:48.961Z,7.02
2019-01-26T18:23:13.552Z,7.02
2019-01-26T18:25:42.392Z,6.99
2019-01-26T18:28:10.916Z,6.96
2019-01-26T18:30:40.686Z,6.94
2019-01-26T18:33:09.433Z,6.99
2019-01-26T18:35:38.046Z,6.99
2019-01-26T18:38:06.952Z,7.02
2019-01-26T18:40:35.433Z,7.01
2019-01-26T18:43:03.963Z,6.93
2019-01-26T18:45:33.068Z,7.00
2019-01-26T18:48:01.521Z,7.01
2019-01-26T18:50:32.754Z,7.03
2019-01-26T18:53:01.665Z,7.03
2019-01-26T18:55:30.169Z,7.05
2019-01-26T18:57:58.572Z,7.07
2019-01-26T19:00:36.294Z,7.07
2019-01-26T19:03:25.878Z,7.05
2019-01-26T19:05:56.640Z,7.06
2019-01-26T19:08:25.146Z,7.06
2019-01-26T19:10:53.667Z,7.06
2019-01-26T19:13:22.180Z,7.07
2019-01-26T19:15:50.673Z,7.05
2019-01-26T19:18:19.280Z,7.09
2019-01-26T19:20:48.744Z,7.06
2019-01-26T19:23:17.400Z,7.06
2019-01-26T19:25:45.959Z,7.02
2019-01-26T19:28:14.469Z,7.01
2019-01-26T19:30:43.185Z,6.97
2019-01-26T19:33:11.624Z,6.98
2019-01-26T19:35:41.783Z,7.00
2019-01-26T19:38:10.239Z,7.01
2019-01-26T19:40:38.756Z,6.99
2019-01-26T19:43:07.278Z,7.01
2019-01-26T19:45:35.699Z,7.07
2019-01-26T19:48:05.070Z,7.08
2019-01-26T19:50:33.579Z,7.06
2019-01-26T19:53:02.057Z,7.07
2019-01-26T19:55:30.629Z,7.08
2019-01-26T19:57:59.062Z,7.11
2019-01-26T20:00:27.504Z,7.16
2019-01-26T20:02:56.058Z,7.11
2019-01-26T20:05:26.012Z,7.10
2019-01-26T20:07:54.680Z,7.10
2019-01-26T20:10:23.347Z,7.09
2019-01-26T20:12:51.856Z,7.02
2019-01-26T20:15:22.048Z,7.04
2019-01-26T20:17:51.055Z,7.04
2019-01-26T20:20:22.638Z,7.07
2019-01-26T20:22:51.526Z,7.08
2019-01-26T20:25:19.970Z,7.09
2019-01-26T20:27:48.503Z,7.10
2019-01-26T20:30:23.180Z,7.10
2019-01-26T20:32:51.662Z,7.10
2019-01-26T20:35:20.267Z,7.12
2019-01-26T20:37:48.775Z,7.13
2019-01-26T20:40:18.680Z,7.07
2019-01-26T20:42:47.323Z,7.10
2019-01-26T20:45:21.187Z,7.09
2019-01-26T20:47:49.632Z,7.13
2019-01-26T20:50:18.072Z,7.13
2019-01-26T20:52:46.964Z,7.14
2019-01-26T20:55:15.746Z,7.12
2019-01-26T20:57:44.139Z,7.08
2019-01-26T21:00:18.622Z,7.06
2019-01-26T21:02:47.146Z,7.01
2019-01-26T21:05:15.847Z,7.02
2019-01-26T21:07:44.280Z,7.04
2019-01-26T21:10:18.688Z,7.11
2019-01-26T21:12:47.684Z,7.09
2019-01-26T21:15:16.124Z,7.13
2019-01-26T21:17:44.535Z,7.12
2019-01-26T21:20:18.610Z,7.03
2019-01-26T21:22:47.106Z,7.05
2019-01-26T21:25:15.854Z,7.03
2019-01-26T21:27:44.601Z,7.02
2019-01-26T21:30:21.643Z,7.01
2019-01-26T21:32:50.157Z,6.98
2019-01-26T21:35:18.758Z,6.95
2019-01-26T21:37:47.455Z,6.98
2019-01-26T21:40:18.682Z,6.94
2019-01-26T21:42:47.167Z,6.94
2019-01-26T21:45:17.038Z,6.91
2019-01-26T21:47:45.603Z,6.88
2019-01-26T21:50:17.042Z,6.89
2019-01-26T21:52:45.533Z,6.88
2019-01-26T21:55:14.057Z,6.84
2019-01-26T21:57:42.487Z,6.84
2019-01-26T22:00:22.820Z,6.82
2019-01-26T22:02:51.417Z,6.81
2019-01-26T22:05:19.865Z,6.82
2019-01-26T22:07:48.370Z,6.85
2019-01-26T22:10:22.720Z,6.82
2019-01-26T22:12:51.217Z,6.79
2019-01-26T22:15:21.176Z,6.80
2019-01-26T22:17:49.678Z,6.79
2019-01-26T22:20:20.754Z,6.77
2019-01-26T22:22:49.968Z,6.79
2019-01-26T22:25:19.643Z,6.78
2019-01-26T22:27:48.410Z,6.79
2019-01-26T22:30:25.055Z,6.73
2019-01-26T22:32:53.568Z,6.73
2019-01-26T22:35:22.539Z,6.71
2019-01-26T22:37:51.060Z,6.74
2019-01-26T22:40:22.516Z,6.76
2019-01-26T22:42:50.966Z,6.75
2019-01-26T22:45:19.603Z,6.74
2019-01-26T22:47:48.156Z,6.71
2019-01-26T22:50:19.705Z,6.71
2019-01-26T22:52:48.317Z,6.67
2019-01-26T22:55:19.088Z,6.66
2019-01-26T22:57:48.931Z,6.65
2019-01-26T23:00:28.272Z,6.69
2019-01-26T23:02:56.845Z,6.68
2019-01-26T23:05:49.596Z,6.68
2019-01-26T23:08:21.110Z,6.65
2019-01-26T23:11:04.368Z,6.71
2019-01-26T23:13:33.737Z,6.73
2019-01-26T23:16:17.449Z,6.72
2019-01-26T23:18:54.893Z,6.75
2019-01-26T23:21:29.470Z,6.74
2019-01-26T23:24:30.949Z,6.73
2019-01-26T23:27:11.189Z,6.75
2019-01-26T23:29:48.219Z,6.75
2019-01-26T23:32:16.664Z,6.74
2019-01-26T23:34:45.159Z,6.73
2019-01-26T23:37:13.726Z,6.73
2019-01-26T23:39:42.175Z,6.73
2019-01-26T23:42:10.772Z,6.73
2019-01-26T23:44:39.207Z,6.70
2019-01-26T23:47:07.710Z,6.66
2019-01-26T23:49:38.954Z,6.67
2019-01-26T23:52:07.536Z,6.59
2019-01-26T23:54:36.014Z,6.63
2019-01-26T23:57:04.457Z,6.58
2019-01-26T23:59:32.875Z,6.57
